createdAt,value
2023-01-30T00:00:58.802Z,17.33
2023-01-30T00:04:00.354Z,18.67
2023-01-30T00:07:01.777Z,18.57
2023-01-30T00:10:03.373Z,19.30
2023-01-30T00:13:04.791Z,19.02
2023-01-30T00:16:07.315Z,18.73
2023-01-30T00:19:08.846Z,17.70
2023-01-30T00:22:10.280Z,17.10
2023-01-30T00:25:11.802Z,17.80
2023-01-30T00:28:13.378Z,17.15
2023-01-30T00:31:16.284Z,17.08
2023-01-30T00:37:19.789Z,16.90
2023-01-30T00:40:21.277Z,16.93
2023-01-30T00:43:41.514Z,17.25
2023-01-30T00:47:15.468Z,17.40
2023-01-30T00:50:16.983Z,15.57
2023-01-30T00:53:18.625Z,17.77
2023-01-30T00:56:20.060Z,16.55
2023-01-30T00:59:21.453Z,17.20
2023-01-30T01:02:22.910Z,15.65
2023-01-30T01:05:24.557Z,16.60
2023-01-30T01:08:27.813Z,17.27
2023-01-30T01:11:30.509Z,17.20
2023-01-30T01:14:32.793Z,15.57
2023-01-30T01:20:35.813Z,15.50
2023-01-30T01:23:37.693Z,16.35
2023-01-30T01:26:39.441Z,16.67
2023-01-30T01:29:40.868Z,16.85
2023-01-30T01:32:42.302Z,17.52
2023-01-30T01:35:44.427Z,16.80
2023-01-30T01:38:45.901Z,16.07
2023-01-30T01:41:48.082Z,16.55
2023-01-30T01:45:17.989Z,16.47
2023-01-30T01:48:27.485Z,16.10
2023-01-30T01:51:38.570Z,16.08
2023-01-30T01:54:48.651Z,17.15
2023-01-30T01:58:23.188Z,16.73
2023-01-30T02:01:26.753Z,16.50
2023-01-30T02:04:48.755Z,17.45
2023-01-30T02:07:50.107Z,17.00
2023-01-30T02:11:01.025Z,17.00
2023-01-30T02:14:03.113Z,17.70
2023-01-30T02:17:04.595Z,18.20
2023-01-30T02:20:24.551Z,18.37
2023-01-30T02:23:38.109Z,18.55
2023-01-30T02:26:47.506Z,18.70
2023-01-30T02:30:05.033Z,17.00
2023-01-30T02:33:14.863Z,18.10
2023-01-30T02:36:47.195Z,17.08
2023-01-30T02:39:57.672Z,19.83
2023-01-30T02:43:20.859Z,18.33
2023-01-30T02:46:31.478Z,17.60
2023-01-30T02:49:38.982Z,19.52
2023-01-30T02:52:42.414Z,18.52
2023-01-30T02:58:49.354Z,19.37
2023-01-30T03:02:28.226Z,19.02
2023-01-30T03:05:43.201Z,19.52
2023-01-30T03:09:19.715Z,18.02
2023-01-30T03:12:33.687Z,18.00
2023-01-30T03:15:47.333Z,17.38
2023-01-30T03:18:49.489Z,18.38
2023-01-30T03:21:51.638Z,17.38
2023-01-30T03:24:54.436Z,18.50
2023-01-30T03:27:57.192Z,20.25
2023-01-30T03:34:00.296Z,17.20
2023-01-30T03:37:02.759Z,18.73
2023-01-30T03:40:09.782Z,17.60
2023-01-30T03:43:12.545Z,18.20
2023-01-30T03:46:13.987Z,16.47
2023-01-30T03:49:15.687Z,17.67
2023-01-30T03:52:17.145Z,17.07
2023-01-30T03:55:19.076Z,16.92
2023-01-30T03:58:21.470Z,16.70
2023-01-30T04:01:23.491Z,15.82
2023-01-30T04:04:25.123Z,16.40
2023-01-30T04:07:29.597Z,16.33
2023-01-30T04:10:32.824Z,16.73
2023-01-30T04:13:34.312Z,16.13
2023-01-30T04:16:35.940Z,16.67
2023-01-30T04:20:16.236Z,15.02
2023-01-30T04:23:23.543Z,15.30
2023-01-30T04:26:25.805Z,15.13
2023-01-30T04:29:27.422Z,16.98
2023-01-30T04:32:30.183Z,15.77
2023-01-30T04:35:31.768Z,16.55
2023-01-30T04:38:34.231Z,17.27
2023-01-30T04:41:36.201Z,15.40
2023-01-30T04:44:37.643Z,15.50
2023-01-30T04:47:46.639Z,15.07
2023-01-30T04:50:49.970Z,15.05
2023-01-30T04:53:51.793Z,15.27
2023-01-30T04:56:53.898Z,15.82
2023-01-30T04:59:55.328Z,16.48
2023-01-30T05:05:59.093Z,16.75
2023-01-30T05:09:01.213Z,15.77
2023-01-30T05:12:02.652Z,16.27
2023-01-30T05:15:05.044Z,16.27
2023-01-30T05:21:10.567Z,15.52
2023-01-30T05:24:11.989Z,19.20
2023-01-30T05:27:13.379Z,15.97
2023-01-30T05:30:14.904Z,17.45
2023-01-30T05:33:16.313Z,14.93
2023-01-30T05:36:20.264Z,17.20
2023-01-30T05:39:21.676Z,15.98
2023-01-30T05:42:23.091Z,14.57
2023-01-30T05:45:24.509Z,13.90
2023-01-30T05:48:26.354Z,13.52
2023-01-30T05:51:27.828Z,14.27
2023-01-30T05:54:29.220Z,15.50
2023-01-30T05:57:30.625Z,15.88
2023-01-30T06:00:32.029Z,14.25
2023-01-30T06:03:33.518Z,15.00
2023-01-30T06:06:35.128Z,16.00
2023-01-30T06:09:36.575Z,13.87
2023-01-30T06:12:38.077Z,13.40
2023-01-30T06:15:39.547Z,15.87
2023-01-30T06:18:40.980Z,12.90
2023-01-30T06:21:42.368Z,13.57
2023-01-30T06:24:43.753Z,15.63
2023-01-30T06:27:48.161Z,15.52
2023-01-30T06:30:49.990Z,15.52
2023-01-30T06:33:51.578Z,14.98
2023-01-30T06:36:52.993Z,16.43
2023-01-30T06:39:54.397Z,14.65
2023-01-30T06:42:55.870Z,14.32
2023-01-30T06:45:59.544Z,14.60
2023-01-30T06:49:01.034Z,16.65
2023-01-30T06:52:02.668Z,14.97
2023-01-30T06:55:04.358Z,14.27
2023-01-30T06:58:10.373Z,17.77
2023-01-30T07:01:11.988Z,15.18
2023-01-30T07:04:13.440Z,14.33
2023-01-30T07:07:14.877Z,15.67
2023-01-30T07:10:16.643Z,18.55
2023-01-30T07:13:18.137Z,14.88
2023-01-30T07:16:19.768Z,15.50
2023-01-30T07:19:21.182Z,14.57
2023-01-30T07:22:22.651Z,13.48
2023-01-30T07:25:26.230Z,13.13
2023-01-30T07:28:27.679Z,13.98
2023-01-30T07:31:29.260Z,13.52
2023-01-30T07:34:30.733Z,13.47
2023-01-30T07:37:32.166Z,15.55
2023-01-30T07:40:33.774Z,14.82
2023-01-30T07:43:35.345Z,15.90
2023-01-30T07:46:37.149Z,15.70
2023-01-30T07:49:38.566Z,15.27
2023-01-30T07:52:39.943Z,15.27
2023-01-30T07:55:41.918Z,14.57
2023-01-30T07:58:43.295Z,16.17
2023-01-30T08:01:44.683Z,15.07
2023-01-30T08:04:46.138Z,15.85
2023-01-30T08:07:47.610Z,14.23
2023-01-30T08:10:49.306Z,13.90
2023-01-30T08:13:51.013Z,13.70
2023-01-30T08:16:52.435Z,14.18
2023-01-30T08:19:53.904Z,13.03
2023-01-30T08:22:55.521Z,13.03
2023-01-30T08:25:59.318Z,13.30
2023-01-30T08:29:00.897Z,13.13
2023-01-30T08:32:02.481Z,14.15
2023-01-30T08:35:04.034Z,16.40
2023-01-30T08:38:07.133Z,17.50
2023-01-30T08:41:09.549Z,13.80
2023-01-30T08:47:12.932Z,13.70
2023-01-30T08:50:14.316Z,14.80
2023-01-30T08:53:15.779Z,16.05
2023-01-30T08:56:17.239Z,14.70
2023-01-30T08:59:18.645Z,16.73
2023-01-30T09:02:20.112Z,14.53
2023-01-30T09:05:22.078Z,14.93
2023-01-30T09:08:23.514Z,15.27
2023-01-30T09:11:24.936Z,14.77
2023-01-30T09:14:26.437Z,14.90
2023-01-30T09:17:27.841Z,15.93
2023-01-30T09:20:29.247Z,13.50
2023-01-30T09:23:30.703Z,13.67
2023-01-30T09:26:32.503Z,12.82
2023-01-30T09:29:33.944Z,14.15
2023-01-30T09:32:37.373Z,13.23
2023-01-30T09:35:38.835Z,13.13
2023-01-30T09:38:40.317Z,16.00
2023-01-30T09:42:13.614Z,14.00
2023-01-30T09:45:18.074Z,12.88
2023-01-30T09:48:47.875Z,10.98
2023-01-30T09:52:16.324Z,12.63
2023-01-30T09:55:21.554Z,12.27
2023-01-30T09:58:24.559Z,13.65
2023-01-30T10:01:50.983Z,13.43
2023-01-30T10:05:01.470Z,12.68
2023-01-30T10:08:28.497Z,12.40
2023-01-30T10:11:29.999Z,13.75
2023-01-30T10:14:38.550Z,17.53
2023-01-30T10:17:56.947Z,14.63
2023-01-30T10:21:16.598Z,12.88
2023-01-30T10:24:18.159Z,15.75
2023-01-30T10:27:22.603Z,12.87
2023-01-30T10:30:24.595Z,13.73
2023-01-30T10:33:33.667Z,15.15
2023-01-30T10:36:35.170Z,15.95
2023-01-30T10:40:02.038Z,19.63
2023-01-30T10:43:15.234Z,17.50
2023-01-30T10:46:31.498Z,15.68
2023-01-30T10:49:43.846Z,14.70
2023-01-30T10:56:16.934Z,17.77
2023-01-30T10:59:28.666Z,14.90
2023-01-30T11:02:44.118Z,15.75
2023-01-30T11:05:49.857Z,16.48
2023-01-30T11:08:53.941Z,16.00
2023-01-30T11:11:55.702Z,15.07
2023-01-30T11:15:03.899Z,16.55
2023-01-30T11:18:41.097Z,15.93
2023-01-30T11:21:43.138Z,15.25
2023-01-30T11:24:45.923Z,15.88
2023-01-30T11:28:00.414Z,15.27
2023-01-30T11:31:01.835Z,14.93
2023-01-30T11:34:06.066Z,15.73
2023-01-30T11:37:32.070Z,16.50
2023-01-30T11:40:40.126Z,13.90
2023-01-30T11:43:41.594Z,13.35
2023-01-30T11:46:43.252Z,13.33
2023-01-30T11:50:15.544Z,16.05
2023-01-30T11:53:28.976Z,12.80
2023-01-30T11:56:33.849Z,17.52
2023-01-30T11:59:40.605Z,15.85
2023-01-30T12:02:43.771Z,13.65
2023-01-30T12:05:47.173Z,14.35
2023-01-30T12:08:54.058Z,16.05
2023-01-30T12:11:55.432Z,14.48
2023-01-30T12:15:14.475Z,16.75
2023-01-30T12:18:42.802Z,14.52
2023-01-30T12:21:52.458Z,15.68
2023-01-30T12:25:34.134Z,14.00
2023-01-30T12:28:52.056Z,14.35
2023-01-30T12:35:18.811Z,15.35
2023-01-30T12:38:26.055Z,15.75
2023-01-30T12:41:31.458Z,15.55
2023-01-30T12:44:51.538Z,15.48
2023-01-30T12:48:01.608Z,15.05
2023-01-30T12:51:08.650Z,14.55
2023-01-30T12:54:34.649Z,15.35
2023-01-30T12:57:47.237Z,16.20
2023-01-30T13:04:23.114Z,16.67
2023-01-30T13:07:31.389Z,17.13
2023-01-30T13:11:03.425Z,16.90
2023-01-30T13:14:22.634Z,16.98
2023-01-30T13:17:48.164Z,15.57
2023-01-30T13:21:00.585Z,17.98
2023-01-30T13:27:13.207Z,18.27
2023-01-30T13:30:18.002Z,18.45
2023-01-30T13:33:24.232Z,17.02
2023-01-30T13:36:54.331Z,16.38
2023-01-30T13:40:00.382Z,15.52
2023-01-30T13:43:17.480Z,17.30
2023-01-30T13:46:26.357Z,15.52
2023-01-30T13:49:40.079Z,16.77
2023-01-30T13:52:59.598Z,22.45
2023-01-30T13:56:40.212Z,19.52
2023-01-30T13:59:57.825Z,16.70
2023-01-30T14:03:08.579Z,16.15
2023-01-30T14:06:31.060Z,17.25
2023-01-30T14:09:33.833Z,16.70
2023-01-30T14:12:40.146Z,17.98
2023-01-30T14:16:05.910Z,18.27
2023-01-30T14:19:32.312Z,17.83
2023-01-30T14:22:50.599Z,17.80
2023-01-30T14:25:56.476Z,17.65
2023-01-30T14:28:58.034Z,17.02
2023-01-30T14:31:59.452Z,20.30
2023-01-30T14:35:22.606Z,19.10
2023-01-30T14:38:26.002Z,18.85
2023-01-30T14:41:28.322Z,20.42
2023-01-30T14:48:33.548Z,17.25
2023-01-30T14:51:47.776Z,18.13
2023-01-30T14:54:50.877Z,17.67
2023-01-30T14:58:02.442Z,16.52
2023-01-30T15:01:04.487Z,17.88
2023-01-30T15:04:05.907Z,16.77
2023-01-30T15:07:19.931Z,19.45
2023-01-30T15:10:49.458Z,19.88
2023-01-30T15:14:08.867Z,21.83
2023-01-30T15:17:16.323Z,25.27
2023-01-30T15:20:30.837Z,24.27
2023-01-30T15:23:56.325Z,21.90
2023-01-30T15:27:13.007Z,18.63
2023-01-30T15:30:42.993Z,19.38
2023-01-30T15:33:49.733Z,20.15
2023-01-30T15:36:51.164Z,19.92
2023-01-30T15:40:18.836Z,21.50
2023-01-30T15:43:29.628Z,20.02
2023-01-30T15:46:56.973Z,20.45
2023-01-30T15:50:09.844Z,21.75
2023-01-30T15:53:14.711Z,18.08
2023-01-30T15:56:23.298Z,17.70
2023-01-30T15:59:35.917Z,18.95
2023-01-30T16:05:46.755Z,18.52
2023-01-30T16:09:00.640Z,21.90
2023-01-30T16:12:02.126Z,16.40
2023-01-30T16:15:18.933Z,16.23
2023-01-30T16:18:21.215Z,16.95
2023-01-30T16:21:26.931Z,15.83
2023-01-30T16:24:31.915Z,15.38
2023-01-30T16:27:35.556Z,14.38
2023-01-30T16:30:42.369Z,13.85
2023-01-30T16:33:51.413Z,13.25
2023-01-30T16:36:52.849Z,12.25
2023-01-30T16:40:14.792Z,12.87
2023-01-30T16:43:23.635Z,13.00
2023-01-30T16:46:48.334Z,12.07
2023-01-30T16:49:50.168Z,12.75
2023-01-30T16:52:54.555Z,13.13
2023-01-30T16:55:58.938Z,14.57
2023-01-30T16:59:01.767Z,15.25
2023-01-30T17:02:05.953Z,13.90
2023-01-30T17:05:17.393Z,12.88
2023-01-30T17:08:30.893Z,13.50
2023-01-30T17:11:33.794Z,13.73
2023-01-30T17:14:35.263Z,13.90
2023-01-30T17:17:36.684Z,13.07
2023-01-30T17:20:41.846Z,11.23
2023-01-30T17:23:46.376Z,12.85
2023-01-30T17:27:00.149Z,12.15
2023-01-30T17:30:01.670Z,10.85
2023-01-30T17:33:03.375Z,12.47
2023-01-30T17:36:06.893Z,10.25
2023-01-30T17:39:14.685Z,10.25
2023-01-30T17:42:21.915Z,11.90
2023-01-30T17:45:23.531Z,10.20
2023-01-30T17:48:24.953Z,9.83
2023-01-30T17:51:26.407Z,9.75
2023-01-30T17:54:29.959Z,11.50
2023-01-30T17:57:31.428Z,11.18
2023-01-30T18:00:32.870Z,10.63
2023-01-30T18:06:38.632Z,9.52
2023-01-30T18:09:40.299Z,9.25
2023-01-30T18:12:41.941Z,8.32
2023-01-30T18:15:43.462Z,8.60
2023-01-30T18:18:45.257Z,9.07
2023-01-30T18:21:46.714Z,9.38
2023-01-30T18:24:48.144Z,8.50
2023-01-30T18:27:49.659Z,8.67
2023-01-30T18:30:51.187Z,7.53
2023-01-30T18:33:53.515Z,7.67
2023-01-30T18:36:54.923Z,7.75
2023-01-30T18:39:56.464Z,8.50
2023-01-30T18:42:58.029Z,7.20
2023-01-30T18:46:05.528Z,7.67
2023-01-30T18:49:19.145Z,7.05
2023-01-30T18:52:26.870Z,7.13
2023-01-30T18:55:28.355Z,6.25
2023-01-30T18:58:32.025Z,7.60
2023-01-30T19:01:40.085Z,5.90
2023-01-30T19:04:41.751Z,6.50
2023-01-30T19:07:43.200Z,6.97
2023-01-30T19:10:44.911Z,5.07
2023-01-30T19:13:46.371Z,4.93
2023-01-30T19:16:47.969Z,5.40
2023-01-30T19:19:49.352Z,4.73
2023-01-30T19:22:50.838Z,4.70
2023-01-30T19:25:56.242Z,4.20
2023-01-30T19:28:57.777Z,4.18
2023-01-30T19:31:59.371Z,4.80
2023-01-30T19:35:01.042Z,4.35
2023-01-30T19:38:02.488Z,3.97
2023-01-30T19:41:04.254Z,3.67
2023-01-30T19:44:08.740Z,4.30
2023-01-30T19:47:10.162Z,3.80
2023-01-30T19:50:12.115Z,4.30
2023-01-30T19:53:13.573Z,4.05
2023-01-30T19:56:15.521Z,3.67
2023-01-30T19:59:17.040Z,6.10
2023-01-30T20:02:18.504Z,5.10
2023-01-30T20:05:20.973Z,4.83
2023-01-30T20:08:32.242Z,4.40
2023-01-30T20:11:35.894Z,4.80
2023-01-30T20:14:37.392Z,3.85
2023-01-30T20:17:38.828Z,3.95
2023-01-30T20:20:40.249Z,4.93
2023-01-30T20:23:42.249Z,4.30
2023-01-30T20:26:47.137Z,4.70
2023-01-30T20:29:49.620Z,4.40
2023-01-30T20:32:54.675Z,4.72
2023-01-30T20:36:01.110Z,4.85
2023-01-30T20:39:04.316Z,4.22
2023-01-30T20:42:06.342Z,5.40
2023-01-30T20:45:08.365Z,5.00
2023-01-30T20:48:09.785Z,4.50
2023-01-30T20:51:13.431Z,4.78
2023-01-30T20:54:14.989Z,4.40
2023-01-30T20:57:16.428Z,5.03
2023-01-30T21:00:18.379Z,4.90
2023-01-30T21:03:19.863Z,4.40
2023-01-30T21:06:41.281Z,4.38
2023-01-30T21:09:44.617Z,5.15
2023-01-30T21:12:46.042Z,3.88
2023-01-30T21:15:49.207Z,5.63
2023-01-30T21:18:53.796Z,5.88
2023-01-30T21:22:07.372Z,5.57
2023-01-30T21:25:08.894Z,6.80
2023-01-30T21:28:10.282Z,7.97
2023-01-30T21:31:13.395Z,5.97
2023-01-30T21:34:15.332Z,6.65
2023-01-30T21:37:35.451Z,4.60
2023-01-30T21:40:55.337Z,7.40
2023-01-30T21:43:57.225Z,6.43
2023-01-30T21:46:58.784Z,6.78
2023-01-30T21:50:00.246Z,5.03
2023-01-30T21:53:01.859Z,5.38
2023-01-30T21:56:03.437Z,4.73
2023-01-30T21:59:06.223Z,5.30
2023-01-30T22:02:09.639Z,4.40
2023-01-30T22:05:11.136Z,4.95
2023-01-30T22:08:12.545Z,4.80
2023-01-30T22:11:20.541Z,4.78
2023-01-30T22:14:21.973Z,4.78
2023-01-30T22:17:23.406Z,5.60
2023-01-30T22:20:24.895Z,4.47
2023-01-30T22:23:31.252Z,5.23
2023-01-30T22:26:33.778Z,4.82
2023-01-30T22:29:35.326Z,6.20
2023-01-30T22:32:37.331Z,4.77
2023-01-30T22:35:39.466Z,4.60
2023-01-30T22:38:46.328Z,4.43
2023-01-30T22:41:47.756Z,4.80
2023-01-30T22:44:49.816Z,4.57
2023-01-30T22:47:51.267Z,4.22
2023-01-30T22:51:04.295Z,4.10
2023-01-30T22:54:08.962Z,3.67
2023-01-30T22:57:10.521Z,3.88
2023-01-30T23:00:12.206Z,3.60
2023-01-30T23:03:13.600Z,3.43
2023-01-30T23:06:17.159Z,3.30
2023-01-30T23:09:21.422Z,3.80
2023-01-30T23:12:41.146Z,4.05
2023-01-30T23:15:43.454Z,3.88
2023-01-30T23:18:58.227Z,4.05
2023-01-30T23:21:59.605Z,3.70
2023-01-30T23:25:01.020Z,4.05
2023-01-30T23:28:02.425Z,4.30
2023-01-30T23:31:09.566Z,4.25
2023-01-30T23:34:17.674Z,4.20
2023-01-30T23:37:39.127Z,4.10
2023-01-30T23:40:40.687Z,4.38
2023-01-30T23:43:44.340Z,3.77
2023-01-30T23:46:46.349Z,3.90
2023-01-30T23:49:47.755Z,4.05
2023-01-30T23:52:49.251Z,4.20
2023-01-30T23:55:52.159Z,4.20
2023-01-30T23:58:53.950Z,4.63
